createdAt,value
2022-09-03T00:00:44.815Z,0.54
2022-09-03T00:01:46.854Z,0.49
2022-09-03T00:02:48.751Z,0.22
2022-09-03T00:03:49.736Z,0.37
2022-09-03T00:04:51.275Z,0.89
2022-09-03T00:05:52.815Z,0.64
2022-09-03T00:06:54.717Z,0.77
2022-09-03T00:07:55.721Z,1.01
2022-09-03T00:08:56.775Z,0.59
2022-09-03T00:09:57.816Z,0.83
2022-09-03T00:10:58.715Z,0.73
2022-09-03T00:11:59.777Z,0.76
2022-09-03T00:13:00.935Z,0.36
2022-09-03T00:14:02.930Z,0.44
2022-09-03T00:15:04.774Z,0.44
2022-09-03T00:16:06.039Z,0.5
2022-09-03T00:17:06.775Z,0.65
2022-09-03T00:18:07.895Z,0.43
2022-09-03T00:19:09.995Z,0.39
2022-09-03T00:20:11.836Z,0.73
2022-09-03T00:21:13.797Z,0.98
2022-09-03T00:22:14.696Z,0.62
2022-09-03T00:23:15.895Z,0.69
2022-09-03T00:24:17.856Z,0.99
2022-09-03T00:25:19.836Z,0.63
2022-09-03T00:26:21.995Z,0.48
2022-09-03T00:27:24.375Z,0.52
2022-09-03T00:28:25.695Z,0.35
2022-09-03T00:29:26.804Z,0.6
2022-09-03T00:30:27.716Z,0.14
2022-09-03T00:31:28.919Z,0.64
2022-09-03T00:32:31.636Z,0.53
2022-09-03T00:33:32.871Z,0.13
2022-09-03T00:34:34.795Z,0.11
2022-09-03T00:35:36.856Z,0.19
2022-09-03T00:36:38.975Z,0.43
2022-09-03T00:37:40.835Z,1.18
2022-09-03T00:38:41.856Z,0.37
2022-09-03T00:39:44.861Z,0.74
2022-09-03T00:40:47.003Z,0.31
2022-09-03T00:41:48.996Z,0.91
2022-09-03T00:42:50.795Z,0.41
2022-09-03T00:43:51.775Z,0.9
2022-09-03T00:44:52.795Z,0.49
2022-09-03T00:45:53.956Z,1.1
2022-09-03T00:46:55.859Z,0.83
2022-09-03T00:47:58.046Z,1
2022-09-03T00:48:59.755Z,0.71
2022-09-03T00:50:00.934Z,0.65
2022-09-03T00:51:17.775Z,0.42
2022-09-03T00:52:18.955Z,0.67
2022-09-03T00:53:20.890Z,0.76
2022-09-03T00:54:22.875Z,1.04
2022-09-03T00:55:24.943Z,1.03
2022-09-03T00:56:26.856Z,0.3
2022-09-03T00:57:28.883Z,0.72
2022-09-03T00:58:31.135Z,1.33
2022-09-03T00:59:33.014Z,1.24
2022-09-03T01:03:41.514Z,0.79
2022-09-03T01:04:42.476Z,0.86
2022-09-03T01:05:44.443Z,0.44
2022-09-03T01:06:45.554Z,0.51
2022-09-03T01:07:47.814Z,0.77
2022-09-03T01:08:49.534Z,0.85
2022-09-03T01:09:52.142Z,1.2
2022-09-03T01:10:53.599Z,0.62
2022-09-03T01:11:55.510Z,0.39
2022-09-03T01:12:57.434Z,1.04
2022-09-03T01:13:58.835Z,0.66
2022-09-03T01:15:00.934Z,0.5
2022-09-03T01:16:02.746Z,1.55
2022-09-03T01:17:04.515Z,0.49
2022-09-03T01:18:06.715Z,0.62
2022-09-03T01:19:13.494Z,0.54
2022-09-03T01:20:14.413Z,0.33
2022-09-03T01:21:15.514Z,0.71
2022-09-03T01:22:17.534Z,0.89
2022-09-03T01:23:20.054Z,0.29
2022-09-03T01:24:21.434Z,0.48
2022-09-03T01:25:22.414Z,0.9
2022-09-03T01:26:23.454Z,0.97
2022-09-03T01:27:24.615Z,0.68
2022-09-03T01:28:26.558Z,0.82
2022-09-03T01:29:28.553Z,1.01
2022-09-03T01:30:30.840Z,1.01
2022-09-03T01:31:32.619Z,0.35
2022-09-03T01:32:34.557Z,1.06
2022-09-03T01:33:36.775Z,0.63
2022-09-03T01:34:38.474Z,1.02
2022-09-03T01:35:39.754Z,0.87
2022-09-03T01:36:41.754Z,1.08
2022-09-03T01:37:43.594Z,1.86
2022-09-03T01:38:45.715Z,1.13
2022-09-03T01:39:47.741Z,1.58
2022-09-03T01:40:49.594Z,0.99
2022-09-03T01:41:51.434Z,1.11
2022-09-03T01:42:52.536Z,0.98
2022-09-03T01:43:54.534Z,0.47
2022-09-03T01:44:56.597Z,0.56
2022-09-03T01:45:58.713Z,0.78
2022-09-03T01:47:00.494Z,0.59
2022-09-03T01:48:02.154Z,0.41
2022-09-03T01:49:03.575Z,0.63
2022-09-03T01:50:05.433Z,0.86
2022-09-03T01:51:06.334Z,0.2
2022-09-03T01:52:07.453Z,0.44
2022-09-03T01:53:08.607Z,0.41
2022-09-03T01:54:10.766Z,0.78
2022-09-03T01:55:12.833Z,0.72
2022-09-03T01:56:14.414Z,0.54
2022-09-03T01:57:17.268Z,0.74
2022-09-03T01:58:17.694Z,0.59
2022-09-03T01:59:19.614Z,0.16
2022-09-03T02:00:21.622Z,0.4
2022-09-03T02:01:23.677Z,0.47
2022-09-03T02:02:26.013Z,0.87
2022-09-03T02:03:27.937Z,0.59
2022-09-03T02:04:29.496Z,0.56
2022-09-03T02:05:30.623Z,0.94
2022-09-03T02:06:32.594Z,0.78
2022-09-03T02:07:34.653Z,0.35
2022-09-03T02:08:36.793Z,0.48
2022-09-03T02:09:38.595Z,0.51
2022-09-03T02:10:40.674Z,0.61
2022-09-03T02:11:42.694Z,0.44
2022-09-03T02:12:44.735Z,0.87
2022-09-03T02:13:46.554Z,1.09
2022-09-03T02:14:48.736Z,0.69
2022-09-03T02:15:50.728Z,0.4
2022-09-03T02:16:52.515Z,0.51
2022-09-03T02:17:55.015Z,0.34
2022-09-03T02:18:57.195Z,0.31
2022-09-03T02:19:58.834Z,0.19
2022-09-03T02:21:01.679Z,0.64
2022-09-03T02:22:03.813Z,0.53
2022-09-03T02:23:11.154Z,0.48
2022-09-03T02:24:12.574Z,0.57
2022-09-03T02:25:14.675Z,0.58
2022-09-03T02:26:16.674Z,0.31
2022-09-03T02:27:18.654Z,0.22
2022-09-03T02:28:20.935Z,0.21
2022-09-03T02:29:22.854Z,0.29
2022-09-03T02:30:24.895Z,0.53
2022-09-03T02:31:26.635Z,0.4
2022-09-03T02:32:28.774Z,1.04
2022-09-03T02:33:30.454Z,0.81
2022-09-03T02:34:32.094Z,0.41
2022-09-03T02:35:33.894Z,0.24
2022-09-03T02:36:35.595Z,0.28
2022-09-03T02:37:37.474Z,0.5
2022-09-03T02:38:38.534Z,0.15
2022-09-03T02:39:40.804Z,0.33
2022-09-03T02:40:43.415Z,0.35
2022-09-03T02:41:45.356Z,0.11
2022-09-03T02:42:46.674Z,0.36
2022-09-03T02:43:48.674Z,0.22
2022-09-03T02:44:50.973Z,0.41
2022-09-03T02:45:52.720Z,0.5
2022-09-03T02:46:55.135Z,0.3
2022-09-03T02:47:56.614Z,0.36
2022-09-03T02:48:59.200Z,0.34
2022-09-03T02:50:00.976Z,0.15
2022-09-03T02:51:02.666Z,0.32
2022-09-03T02:52:04.674Z,0.22
2022-09-03T02:53:06.554Z,0.15
2022-09-03T02:54:07.734Z,0.38
2022-09-03T02:55:09.622Z,0.2
2022-09-03T02:56:11.714Z,0.42
2022-09-03T02:57:13.984Z,0.23
2022-09-03T02:58:15.892Z,0.23
2022-09-03T02:59:17.595Z,0.29
2022-09-03T03:00:19.577Z,0.13
2022-09-03T03:01:23.764Z,0.53
2022-09-03T03:02:22.696Z,0.42
2022-09-03T03:03:24.801Z,0.42
2022-09-03T03:04:26.634Z,0.32
2022-09-03T03:05:28.514Z,0.45
2022-09-03T03:06:29.617Z,0.61
2022-09-03T03:07:32.194Z,0.4
2022-09-03T03:08:33.715Z,0.67
2022-09-03T03:09:35.433Z,0.78
2022-09-03T03:10:36.656Z,0.71
2022-09-03T03:11:38.647Z,0.39
2022-09-03T03:12:40.774Z,0.29
2022-09-03T03:13:43.275Z,0.25
2022-09-03T03:14:44.817Z,0.27
2022-09-03T03:15:47.494Z,0.39
2022-09-03T03:16:48.693Z,0.49
2022-09-03T03:17:50.636Z,0.65
2022-09-03T03:18:52.722Z,0.1
2022-09-03T03:20:09.594Z,0.24
2022-09-03T03:21:11.653Z,0.31
2022-09-03T03:22:13.710Z,0
2022-09-03T03:23:15.713Z,0.23
2022-09-03T03:24:17.554Z,0
2022-09-03T03:25:18.854Z,0.55
2022-09-03T03:26:20.793Z,0.32
2022-09-03T03:27:22.603Z,0
2022-09-03T03:28:24.892Z,0
2022-09-03T03:29:26.714Z,0
2022-09-03T03:30:28.714Z,0.06
2022-09-03T03:31:30.614Z,0.25
2022-09-03T03:32:32.475Z,0
2022-09-03T03:33:33.474Z,0.33
2022-09-03T03:34:34.614Z,0.24
2022-09-03T03:35:36.573Z,0.56
2022-09-03T03:36:37.576Z,0.07
2022-09-03T03:37:39.333Z,0.29
2022-09-03T03:38:40.554Z,0.07
2022-09-03T03:39:41.655Z,0.08
2022-09-03T03:40:43.653Z,0.43
2022-09-03T03:41:45.693Z,0.33
2022-09-03T03:42:48.454Z,0
2022-09-03T03:43:49.553Z,0
2022-09-03T03:44:50.717Z,0
2022-09-03T03:45:53.000Z,0.04
2022-09-03T03:46:54.689Z,0.1
2022-09-03T03:47:56.853Z,0.18
2022-09-03T03:48:58.953Z,0.36
2022-09-03T03:50:00.712Z,0.37
2022-09-03T03:51:03.054Z,0.15
2022-09-03T03:52:04.666Z,0
2022-09-03T03:53:06.896Z,0.16
2022-09-03T03:54:08.814Z,0.12
2022-09-03T03:55:10.683Z,0.21
2022-09-03T03:56:12.793Z,0
2022-09-03T03:57:14.868Z,0.12
2022-09-03T03:58:16.583Z,0.21
2022-09-03T03:59:17.930Z,0
2022-09-03T04:00:20.136Z,0.09
2022-09-03T04:01:21.790Z,0
2022-09-03T04:02:23.738Z,0
2022-09-03T04:03:24.585Z,0
2022-09-03T04:04:25.734Z,0
2022-09-03T04:05:27.716Z,0
2022-09-03T04:06:29.893Z,0
2022-09-03T04:07:31.634Z,0
2022-09-03T04:08:33.735Z,0.32
2022-09-03T04:09:35.933Z,0
2022-09-03T04:10:37.715Z,0
2022-09-03T04:11:39.695Z,0
2022-09-03T04:12:42.194Z,0
2022-09-03T04:13:43.613Z,0
2022-09-03T04:14:46.261Z,0
2022-09-03T04:15:47.753Z,0
2022-09-03T04:16:49.973Z,0
2022-09-03T04:17:51.874Z,0
2022-09-03T04:18:53.616Z,0
2022-09-03T04:19:55.634Z,0
2022-09-03T04:20:57.773Z,0
2022-09-03T04:22:00.234Z,0
2022-09-03T04:23:01.575Z,0
2022-09-03T04:24:02.654Z,0
2022-09-03T04:25:04.752Z,0
2022-09-03T04:26:07.496Z,0
2022-09-03T04:27:08.764Z,0
2022-09-03T04:28:10.493Z,0
2022-09-03T04:29:11.835Z,0
2022-09-03T04:30:14.011Z,0
2022-09-03T04:31:15.670Z,0
2022-09-03T04:32:17.499Z,0
2022-09-03T04:33:19.214Z,0.16
2022-09-03T04:34:20.733Z,0
2022-09-03T04:35:22.513Z,0
2022-09-03T04:36:23.540Z,0
2022-09-03T04:37:24.655Z,0
2022-09-03T04:38:26.684Z,0
2022-09-03T04:39:28.967Z,0
2022-09-03T04:40:31.664Z,0
2022-09-03T04:41:33.533Z,0
2022-09-03T04:42:34.534Z,0
2022-09-03T04:43:35.614Z,0
2022-09-03T04:44:37.593Z,0
2022-09-03T04:45:38.869Z,0
2022-09-03T04:46:41.613Z,0
2022-09-03T04:47:43.526Z,0
2022-09-03T04:48:44.880Z,0
2022-09-03T04:49:46.762Z,0.11
2022-09-03T04:50:48.753Z,0
2022-09-03T04:51:50.894Z,0.15
2022-09-03T04:52:52.616Z,0.18
2022-09-03T04:53:54.693Z,0.14
2022-09-03T04:54:56.695Z,0
2022-09-03T04:55:58.733Z,0.23
2022-09-03T04:57:00.793Z,0.16
2022-09-03T04:58:02.771Z,0
2022-09-03T04:59:04.659Z,0.18
2022-09-03T05:00:06.893Z,0.39
2022-09-03T05:01:09.176Z,0.37
2022-09-03T05:02:10.771Z,0.31
2022-09-03T05:03:12.629Z,0
2022-09-03T05:04:13.605Z,0.13
2022-09-03T05:05:15.715Z,0.22
2022-09-03T05:06:17.743Z,0
2022-09-03T05:07:20.355Z,0.11
2022-09-03T05:08:21.860Z,0
2022-09-03T05:09:23.973Z,0
2022-09-03T05:10:25.593Z,0
2022-09-03T05:11:28.131Z,0.24
2022-09-03T05:12:29.873Z,0.2
2022-09-03T05:13:31.689Z,0.38
2022-09-03T05:14:34.409Z,0.14
2022-09-03T05:15:35.854Z,0.09
2022-09-03T05:16:37.663Z,0.27
2022-09-03T05:17:38.594Z,0.8
2022-09-03T05:18:39.613Z,0.37
2022-09-03T05:19:40.553Z,0.51
2022-09-03T05:20:41.721Z,0.15
2022-09-03T05:21:44.050Z,0.62
2022-09-03T05:22:45.819Z,0.66
2022-09-03T05:23:47.634Z,0.27
2022-09-03T05:24:49.582Z,0.61
2022-09-03T05:25:50.613Z,0.64
2022-09-03T05:26:51.693Z,0.48
2022-09-03T05:27:53.903Z,0.28
2022-09-03T05:28:55.995Z,0.6
2022-09-03T05:29:57.896Z,0.65
2022-09-03T05:30:59.979Z,0.12
2022-09-03T05:32:01.803Z,0.67
2022-09-03T05:33:03.996Z,1.45
2022-09-03T05:34:05.706Z,0.86
2022-09-03T05:35:07.873Z,1.06
2022-09-03T05:36:09.606Z,1.21
2022-09-03T05:37:14.647Z,0.79
2022-09-03T05:38:16.513Z,0.9
2022-09-03T05:39:17.571Z,0.88
2022-09-03T05:40:19.596Z,0.27
2022-09-03T05:41:22.053Z,0.43
2022-09-03T05:42:23.593Z,0.19
2022-09-03T05:43:25.835Z,1.16
2022-09-03T05:44:28.213Z,1.29
2022-09-03T05:45:29.539Z,1.48
2022-09-03T05:46:30.981Z,1.78
2022-09-03T05:47:33.154Z,1.05
2022-09-03T05:48:35.550Z,0.68
2022-09-03T05:49:37.629Z,1.23
2022-09-03T05:50:39.493Z,0.47
2022-09-03T05:51:41.374Z,0.88
2022-09-03T05:52:42.533Z,0.64
2022-09-03T05:53:44.633Z,0.54
2022-09-03T05:54:46.373Z,1.61
2022-09-03T05:55:48.374Z,0.73
2022-09-03T05:56:49.493Z,0.32
2022-09-03T05:57:51.434Z,1
2022-09-03T05:58:53.481Z,1.13
2022-09-03T05:59:54.534Z,0.58
2022-09-03T06:00:56.658Z,0.46
2022-09-03T06:02:00.198Z,0.49
2022-09-03T06:03:00.955Z,0.27
2022-09-03T06:04:02.793Z,1.06
2022-09-03T06:05:04.583Z,1.55
2022-09-03T06:06:06.594Z,1.6
2022-09-03T06:07:08.594Z,1.35
2022-09-03T06:08:10.633Z,1.39
2022-09-03T06:09:12.630Z,0.3
2022-09-03T06:10:14.617Z,0.76
2022-09-03T06:11:16.453Z,1.46
2022-09-03T06:12:17.913Z,1.46
2022-09-03T06:13:19.645Z,1.75
2022-09-03T06:14:21.703Z,0.79
2022-09-03T06:15:23.714Z,0.48
2022-09-03T06:16:30.531Z,0.41
2022-09-03T06:17:28.544Z,0.47
2022-09-03T06:18:30.733Z,1.05
2022-09-03T06:19:32.561Z,1.09
2022-09-03T06:20:37.078Z,0.91
2022-09-03T06:21:40.968Z,1.72
2022-09-03T06:22:43.094Z,0.7
2022-09-03T06:23:46.510Z,0.59
2022-09-03T06:24:46.639Z,1.04
2022-09-03T06:25:48.642Z,0.84
2022-09-03T06:26:50.634Z,0.76
2022-09-03T06:27:52.682Z,0.32
2022-09-03T06:28:54.617Z,0.69
2022-09-03T06:29:57.461Z,0.82
2022-09-03T06:30:58.552Z,0.34
2022-09-03T06:32:00.754Z,0.5
2022-09-03T06:33:02.641Z,0.17
2022-09-03T06:34:04.582Z,0.86
2022-09-03T06:35:07.110Z,0.4
2022-09-03T06:36:09.149Z,0.49
2022-09-03T06:37:10.574Z,1.23
2022-09-03T06:38:12.573Z,0.4
2022-09-03T06:39:14.374Z,0.14
2022-09-03T06:40:15.373Z,0.28
2022-09-03T06:41:17.214Z,0.19
2022-09-03T06:42:18.662Z,0.06
2022-09-03T06:43:20.712Z,0.68
2022-09-03T06:44:23.759Z,0.53
2022-09-03T06:45:25.669Z,1.49
2022-09-03T06:46:28.826Z,1.01
2022-09-03T06:47:30.713Z,1.01
2022-09-03T06:48:32.500Z,0.55
2022-09-03T06:49:34.633Z,0.96
2022-09-03T06:50:36.672Z,1.37
2022-09-03T06:51:38.473Z,1.31
2022-09-03T06:52:40.524Z,0.95
2022-09-03T06:53:41.510Z,1.03
2022-09-03T06:54:42.402Z,0.39
2022-09-03T06:55:43.485Z,2.21
2022-09-03T06:56:44.630Z,1.59
2022-09-03T06:57:47.516Z,1.2
2022-09-03T06:58:48.726Z,1.06
2022-09-03T06:59:50.719Z,0.91
2022-09-03T07:00:52.494Z,0.83
2022-09-03T07:01:53.587Z,1.25
2022-09-03T07:02:54.404Z,1.1
2022-09-03T07:03:55.626Z,0.96
2022-09-03T07:04:58.503Z,1.29
2022-09-03T07:06:00.561Z,0.8
2022-09-03T07:07:02.760Z,0.81
2022-09-03T07:08:04.480Z,0.66
2022-09-03T07:09:05.559Z,1.38
2022-09-03T07:10:07.709Z,1.05
2022-09-03T07:11:09.498Z,1.74
2022-09-03T07:12:10.517Z,1.72
2022-09-03T07:13:11.760Z,0.67
2022-09-03T07:14:14.356Z,0.93
2022-09-03T07:15:15.492Z,1.44
2022-09-03T07:16:16.646Z,1.09
2022-09-03T07:17:18.573Z,1.47
2022-09-03T07:18:21.295Z,1.49
2022-09-03T07:19:22.505Z,0.68
2022-09-03T07:20:23.851Z,0.62
2022-09-03T07:21:25.657Z,0.16
2022-09-03T07:22:31.238Z,1.49
2022-09-03T07:23:29.437Z,0.81
2022-09-03T07:24:30.839Z,0.43
2022-09-03T07:25:32.482Z,0.44
2022-09-03T07:26:33.876Z,0
2022-09-03T07:27:35.863Z,0.5
2022-09-03T07:28:37.606Z,0.26
2022-09-03T07:29:39.682Z,1.77
2022-09-03T07:30:41.695Z,2.25
2022-09-03T07:31:43.894Z,1.95
2022-09-03T07:32:45.567Z,1.04
2022-09-03T07:33:47.544Z,0.1
2022-09-03T07:34:48.514Z,1.06
2022-09-03T07:35:50.595Z,0.81
2022-09-03T07:36:52.614Z,1.6
2022-09-03T07:37:54.802Z,1.78
2022-09-03T07:38:56.878Z,2.35
2022-09-03T07:39:58.696Z,2.34
2022-09-03T07:41:00.535Z,1.91
2022-09-03T07:42:02.447Z,1.32
2022-09-03T07:43:03.566Z,1.32
2022-09-03T07:44:05.609Z,1.28
2022-09-03T07:45:07.629Z,1.3
2022-09-03T07:46:09.453Z,1.22
2022-09-03T07:47:10.664Z,2
2022-09-03T07:48:12.853Z,2.15
2022-09-03T07:49:14.565Z,0.96
2022-09-03T07:50:15.398Z,1.44
2022-09-03T07:51:16.752Z,2.92
2022-09-03T07:52:18.810Z,1.11
2022-09-03T07:53:20.565Z,0.81
2022-09-03T07:54:21.635Z,0.82
2022-09-03T07:55:23.458Z,2
2022-09-03T07:56:24.501Z,1.07
2022-09-03T07:57:25.694Z,0.49
2022-09-03T07:58:28.314Z,0.33
2022-09-03T07:59:29.514Z,0.72
2022-09-03T08:00:30.702Z,0.93
2022-09-03T08:01:32.835Z,0.92
2022-09-03T08:02:35.754Z,0.73
2022-09-03T08:03:40.759Z,0.54
2022-09-03T08:04:42.513Z,1.24
2022-09-03T08:05:43.753Z,1.22
2022-09-03T08:06:45.716Z,0.77
2022-09-03T08:07:47.855Z,1.69
2022-09-03T08:08:49.555Z,1.73
2022-09-03T08:09:51.596Z,2.22
2022-09-03T08:10:53.534Z,1.27
2022-09-03T08:11:54.654Z,1.63
2022-09-03T08:12:56.637Z,1.29
2022-09-03T08:13:58.761Z,0.75
2022-09-03T08:15:00.713Z,0.47
2022-09-03T08:16:17.577Z,0.77
2022-09-03T08:17:19.754Z,0.52
2022-09-03T08:18:21.746Z,0.92
2022-09-03T08:19:23.641Z,0.25
2022-09-03T08:20:25.602Z,0.49
2022-09-03T08:21:27.835Z,0.37
2022-09-03T08:22:29.900Z,0.58
2022-09-03T08:23:31.433Z,1.81
2022-09-03T08:24:32.694Z,1.84
2022-09-03T08:25:34.594Z,0.9
2022-09-03T08:26:36.717Z,0.83
2022-09-03T08:27:38.806Z,0.75
2022-09-03T08:28:40.605Z,1.67
2022-09-03T08:29:42.615Z,1.59
2022-09-03T08:30:44.555Z,1.64
2022-09-03T08:31:45.757Z,1.11
2022-09-03T08:32:47.715Z,0.48
2022-09-03T08:33:49.894Z,0.74
2022-09-03T08:34:51.814Z,0.86
2022-09-03T08:35:53.734Z,1.55
2022-09-03T08:36:55.696Z,2.04
2022-09-03T08:37:57.954Z,0.81
2022-09-03T08:38:59.513Z,1.65
2022-09-03T08:40:00.612Z,0.86
2022-09-03T08:41:01.643Z,0.13
2022-09-03T08:42:03.870Z,0.43
2022-09-03T08:43:06.843Z,0.86
2022-09-03T08:44:07.717Z,1.21
2022-09-03T08:45:09.829Z,0.55
2022-09-03T08:46:11.659Z,1.59
2022-09-03T08:47:14.525Z,1.17
2022-09-03T08:48:16.753Z,2.18
2022-09-03T08:49:18.549Z,2.02
2022-09-03T08:50:21.554Z,1.91
2022-09-03T08:51:23.634Z,1.47
2022-09-03T08:52:25.589Z,1.59
2022-09-03T08:53:27.894Z,1.48
2022-09-03T08:54:29.614Z,1.49
2022-09-03T08:55:31.575Z,1.86
2022-09-03T08:56:32.540Z,1.55
2022-09-03T08:57:34.054Z,1.04
2022-09-03T08:58:35.643Z,1.72
2022-09-03T08:59:37.519Z,1.18
2022-09-03T09:00:53.694Z,1.08
2022-09-03T09:01:55.916Z,1.88
2022-09-03T09:02:57.582Z,1.59
2022-09-03T09:03:59.641Z,0.88
2022-09-03T09:05:01.734Z,1.08
2022-09-03T09:06:03.734Z,1.35
2022-09-03T09:07:05.843Z,1.02
2022-09-03T09:08:07.807Z,1.35
2022-09-03T09:09:09.575Z,0.76
2022-09-03T09:10:11.735Z,1.13
2022-09-03T09:11:13.636Z,1.85
2022-09-03T09:12:16.008Z,1.61
2022-09-03T09:13:18.602Z,2.52
2022-09-03T09:14:20.794Z,2.05
2022-09-03T09:15:23.236Z,2.2
2022-09-03T09:16:24.631Z,0.25
2022-09-03T09:17:26.536Z,1.33
2022-09-03T09:18:28.298Z,0.4
2022-09-03T09:19:29.641Z,0.94
2022-09-03T09:20:32.035Z,0.94
2022-09-03T09:21:34.504Z,0.33
2022-09-03T09:22:36.219Z,1.42
2022-09-03T09:23:38.754Z,1.83
2022-09-03T09:24:41.014Z,2.34
2022-09-03T09:25:42.714Z,1.62
2022-09-03T09:26:44.701Z,2.09
2022-09-03T09:27:46.794Z,1.37
2022-09-03T09:29:03.691Z,1.11
2022-09-03T09:30:04.753Z,1
2022-09-03T09:31:06.860Z,0.46
2022-09-03T09:32:08.756Z,0.78
2022-09-03T09:33:25.914Z,1.76
2022-09-03T09:34:28.170Z,1.99
2022-09-03T09:35:29.853Z,1.92
2022-09-03T09:36:31.578Z,1.05
2022-09-03T09:37:32.994Z,1.65
2022-09-03T09:38:34.734Z,1.84
2022-09-03T09:39:36.473Z,2.59
2022-09-03T09:40:41.417Z,2.2
2022-09-03T09:41:40.778Z,0.64
2022-09-03T09:42:42.908Z,1.89
2022-09-03T09:43:44.715Z,1.42
2022-09-03T09:44:47.599Z,0.69
2022-09-03T09:45:49.913Z,0.51
2022-09-03T09:46:54.745Z,0.78
2022-09-03T09:47:52.608Z,1.29
2022-09-03T09:48:53.762Z,1.47
2022-09-03T09:49:56.134Z,0.53
2022-09-03T09:50:57.594Z,0.57
2022-09-03T09:51:58.574Z,1.11
2022-09-03T09:53:00.813Z,1.02
2022-09-03T09:54:02.835Z,1.89
2022-09-03T09:55:05.393Z,2.28
2022-09-03T09:56:06.974Z,0.8
2022-09-03T09:57:08.651Z,0.61
2022-09-03T09:58:14.198Z,0.41
2022-09-03T09:59:11.554Z,0.05
2022-09-03T10:00:12.514Z,0.82
2022-09-03T10:01:13.833Z,1.9
2022-09-03T10:02:18.368Z,1.12
2022-09-03T10:03:18.288Z,0.62
2022-09-03T10:04:20.340Z,1.33
2022-09-03T10:05:21.633Z,1.9
2022-09-03T10:06:23.694Z,2.28
2022-09-03T10:07:25.781Z,2.14
2022-09-03T10:08:28.133Z,2.98
2022-09-03T10:09:31.245Z,0.54
2022-09-03T10:10:31.661Z,2.26
2022-09-03T10:11:33.593Z,2.65
2022-09-03T10:12:34.636Z,4.65
2022-09-03T10:13:36.781Z,3.89
2022-09-03T10:14:38.645Z,4.04
2022-09-03T10:15:41.077Z,3.47
2022-09-03T10:16:43.030Z,3.31
2022-09-03T10:17:44.771Z,2.18
2022-09-03T10:18:46.555Z,2.55
2022-09-03T10:19:47.613Z,3.44
2022-09-03T10:20:48.754Z,3.18
2022-09-03T10:21:50.722Z,2.05
2022-09-03T10:22:56.658Z,1.63
2022-09-03T10:23:55.733Z,1.13
2022-09-03T10:24:57.767Z,1.87
2022-09-03T10:25:59.593Z,2.62
2022-09-03T10:27:00.813Z,4.14
2022-09-03T10:28:03.294Z,2.23
2022-09-03T10:29:04.783Z,1.69
2022-09-03T10:30:06.833Z,2.67
2022-09-03T10:31:08.743Z,2.99
2022-09-03T10:32:10.854Z,1.1
2022-09-03T10:33:12.653Z,1.3
2022-09-03T10:34:13.723Z,1.48
2022-09-03T10:35:15.593Z,2.49
2022-09-03T10:36:16.642Z,1.16
2022-09-03T10:37:18.714Z,0.34
2022-09-03T10:38:20.755Z,1.03
2022-09-03T10:39:22.797Z,1.94
2022-09-03T10:40:24.674Z,1.2
2022-09-03T10:41:26.655Z,3.29
2022-09-03T10:42:28.152Z,0.97
2022-09-03T10:43:29.834Z,0.73
2022-09-03T10:44:31.742Z,1.63
2022-09-03T10:45:33.814Z,1.02
2022-09-03T10:46:35.672Z,1.27
2022-09-03T10:47:36.701Z,1.2
2022-09-03T10:48:38.754Z,1.69
2022-09-03T10:49:40.605Z,2.91
2022-09-03T10:50:41.653Z,1.82
2022-09-03T10:51:46.260Z,2.31
2022-09-03T10:52:44.715Z,1.74
2022-09-03T10:53:46.654Z,1.73
2022-09-03T10:54:48.753Z,1.94
2022-09-03T10:55:50.654Z,1.23
2022-09-03T10:56:51.614Z,1.25
2022-09-03T10:57:52.672Z,1.18
2022-09-03T10:58:54.661Z,2.22
2022-09-03T10:59:55.532Z,3.24
2022-09-03T11:00:56.617Z,2.73
2022-09-03T11:01:57.778Z,1.51
2022-09-03T11:02:59.688Z,0.6
2022-09-03T11:04:00.694Z,1.57
2022-09-03T11:05:02.907Z,2.57
2022-09-03T11:06:04.835Z,1.53
2022-09-03T11:07:06.794Z,1.86
2022-09-03T11:08:08.621Z,2.68
2022-09-03T11:09:09.783Z,1.77
2022-09-03T11:10:11.874Z,3.19
2022-09-03T11:11:13.854Z,1.84
2022-09-03T11:12:15.833Z,1.73
2022-09-03T11:13:17.681Z,1.34
2022-09-03T11:14:18.561Z,1.74
2022-09-03T11:15:19.633Z,1.19
2022-09-03T11:16:20.858Z,1.07
2022-09-03T11:17:23.118Z,2.5
2022-09-03T11:18:24.989Z,1.05
2022-09-03T11:19:26.686Z,0.95
2022-09-03T11:20:28.013Z,1.39
2022-09-03T11:21:29.687Z,2.01
2022-09-03T11:22:31.758Z,1.42
2022-09-03T11:23:33.838Z,1.77
2022-09-03T11:24:35.934Z,1.04
2022-09-03T11:25:37.793Z,1.63
2022-09-03T11:26:39.953Z,2.71
2022-09-03T11:27:41.813Z,2.7
2022-09-03T11:28:43.634Z,2.21
2022-09-03T11:29:44.829Z,1.43
2022-09-03T11:30:46.843Z,1.51
2022-09-03T11:31:48.714Z,1.05
2022-09-03T11:32:52.939Z,1.29
2022-09-03T11:33:54.853Z,1.82
2022-09-03T11:34:56.750Z,1.86
2022-09-03T11:35:58.493Z,2.84
2022-09-03T11:36:59.684Z,3
2022-09-03T11:38:00.714Z,2.03
2022-09-03T11:39:02.913Z,0.46
2022-09-03T11:40:04.886Z,1.18
2022-09-03T11:41:06.735Z,0.36
2022-09-03T11:42:08.582Z,1.44
2022-09-03T11:43:09.642Z,1.42
2022-09-03T11:44:10.681Z,0.81
2022-09-03T11:45:13.132Z,1.07
2022-09-03T11:46:14.911Z,1.78
2022-09-03T11:47:16.793Z,0.94
2022-09-03T11:48:18.835Z,1.02
2022-09-03T11:49:20.753Z,0.68
2022-09-03T11:50:23.304Z,1.32
2022-09-03T11:51:24.914Z,1.43
2022-09-03T11:52:26.935Z,0.54
2022-09-03T11:53:28.875Z,1.43
2022-09-03T11:54:31.068Z,0.83
2022-09-03T11:55:37.817Z,0.68
2022-09-03T11:56:33.754Z,0.47
2022-09-03T11:57:35.834Z,0.38
2022-09-03T11:58:37.856Z,0.28
2022-09-03T11:59:39.985Z,0.59
2022-09-03T12:00:41.733Z,1.36
2022-09-03T12:01:43.814Z,0.73
2022-09-03T12:02:45.730Z,1.77
2022-09-03T12:03:47.614Z,0.9
2022-09-03T12:04:48.873Z,0.88
2022-09-03T12:05:50.776Z,1.14
2022-09-03T12:06:53.893Z,3.19
2022-09-03T12:07:55.732Z,1.36
2022-09-03T12:08:58.042Z,1.3
2022-09-03T12:09:59.553Z,2.23
2022-09-03T12:11:00.653Z,2.25
2022-09-03T12:12:01.659Z,1.07
2022-09-03T12:13:02.733Z,0.76
2022-09-03T12:14:05.434Z,0.89
2022-09-03T12:15:06.952Z,0.87
2022-09-03T12:16:10.166Z,0.87
2022-09-03T12:17:11.894Z,0.55
2022-09-03T12:18:13.798Z,1.16
2022-09-03T12:19:15.779Z,1.05
2022-09-03T12:20:32.694Z,1.43
2022-09-03T12:21:33.795Z,2.03
2022-09-03T12:22:36.031Z,1.47
2022-09-03T12:23:37.856Z,2.19
2022-09-03T12:24:39.857Z,2.36
2022-09-03T12:25:41.834Z,1.12
2022-09-03T12:26:43.672Z,2.37
2022-09-03T12:27:44.913Z,1.77
2022-09-03T12:28:47.033Z,2.66
2022-09-03T12:29:48.873Z,4.28
2022-09-03T12:30:51.046Z,5.01
2022-09-03T12:31:53.233Z,1.21
2022-09-03T12:32:54.662Z,1.44
2022-09-03T12:33:55.794Z,3.15
2022-09-03T12:34:57.915Z,3.61
2022-09-03T12:36:00.657Z,1.18
2022-09-03T12:37:01.774Z,3.09
2022-09-03T12:38:05.094Z,3.24
2022-09-03T12:39:11.787Z,2.6
2022-09-03T12:40:09.070Z,2.8
2022-09-03T12:41:27.138Z,4.68
2022-09-03T12:42:12.674Z,3.03
2022-09-03T12:44:15.614Z,3.08
2022-09-03T12:45:16.645Z,4.48
2022-09-03T12:46:18.125Z,2.22
2022-09-03T12:47:36.298Z,2.97
2022-09-03T12:48:20.984Z,0.87
2022-09-03T12:49:30.800Z,1.48
2022-09-03T12:50:24.808Z,3.2
2022-09-03T12:52:28.716Z,5.76
2022-09-03T12:53:29.652Z,3.62
2022-09-03T12:54:30.813Z,3.26
2022-09-03T12:55:32.853Z,2.24
2022-09-03T12:56:34.734Z,2.31
2022-09-03T12:57:37.092Z,2.37
2022-09-03T12:58:38.933Z,1.31
2022-09-03T12:59:40.797Z,1.92
2022-09-03T13:00:42.718Z,2.28
2022-09-03T13:01:43.920Z,0.95
2022-09-03T13:02:45.906Z,3.54
2022-09-03T13:03:47.727Z,2.33
2022-09-03T13:04:48.935Z,2.89
2022-09-03T13:05:51.293Z,4.32
2022-09-03T13:06:52.916Z,2.7
2022-09-03T13:07:54.772Z,1.42
2022-09-03T13:08:56.975Z,3.73
2022-09-03T13:09:59.573Z,3.53
2022-09-03T13:11:00.713Z,1.62
2022-09-03T13:12:01.735Z,3.1
2022-09-03T13:13:02.778Z,3.36
2022-09-03T13:14:04.621Z,2.87
2022-09-03T13:15:05.993Z,3.48
2022-09-03T13:16:07.893Z,4.75
2022-09-03T13:17:10.575Z,4.91
2022-09-03T13:18:11.773Z,3.27
2022-09-03T13:19:12.673Z,4.4
2022-09-03T13:20:13.735Z,3.45
2022-09-03T13:21:19.734Z,1.58
2022-09-03T13:22:36.716Z,2.85
2022-09-03T13:23:38.903Z,1.8
2022-09-03T13:24:40.753Z,1.59
2022-09-03T13:25:42.833Z,3.82
2022-09-03T13:26:44.815Z,2.31
2022-09-03T13:27:46.584Z,3.8
2022-09-03T13:28:48.454Z,4.96
2022-09-03T13:29:49.618Z,2.31
2022-09-03T13:30:51.864Z,2.89
2022-09-03T13:31:53.593Z,3.66
2022-09-03T13:32:54.544Z,3.06
2022-09-03T13:33:55.633Z,4.23
2022-09-03T13:34:57.770Z,5.81
2022-09-03T13:35:59.614Z,3.61
2022-09-03T13:37:00.713Z,2.4
2022-09-03T13:38:02.794Z,3.6
2022-09-03T13:39:04.583Z,3.38
2022-09-03T13:40:06.735Z,2.46
2022-09-03T13:41:08.773Z,4.71
2022-09-03T13:42:14.694Z,3.54
2022-09-03T13:43:16.575Z,3.82
2022-09-03T13:44:18.574Z,2.69
2022-09-03T13:45:20.553Z,4.03
2022-09-03T13:46:22.579Z,3.35
2022-09-03T13:47:24.534Z,4.03
2022-09-03T13:48:27.113Z,3.8
2022-09-03T13:49:28.613Z,6.84
2022-09-03T13:50:30.537Z,3.78
2022-09-03T13:51:32.604Z,3.27
2022-09-03T13:52:35.314Z,4.2
2022-09-03T13:53:36.455Z,2.46
2022-09-03T13:54:48.515Z,2.07
2022-09-03T13:55:38.379Z,0.83
2022-09-03T13:56:40.576Z,2.71
2022-09-03T13:57:42.834Z,4.47
2022-09-03T13:58:44.507Z,1.55
2022-09-03T13:59:46.721Z,1.1